CDT,Max TemperatureF,Mean TemperatureF,Min TemperatureF,Max Dew PointF,MeanDew PointF,Min DewpointF,Max Humidity, Mean Humidity, Min Humidity, Max Sea Level PressureIn, Mean Sea Level PressureIn, Min Sea Level PressureIn, Max VisibilityMiles, Mean VisibilityMiles, Min VisibilityMiles, Max Wind SpeedMPH, Mean Wind SpeedMPH, Max Gust SpeedMPH,PrecipitationIn, CloudCover, Events, WindDirDegrees
2012-9-1,80,72,64,63,55,48,78,55,36,30.10,30.06,30.01,10,10,10,21,9,29,0.00,4,,79
2012-9-2,86,73,60,68,62,54,83,69,48,30.03,29.97,29.91,10,10,10,12,5,18,0.00,3,,98
2012-9-3,84,75,66,72,68,66,100,88,62,29.96,29.93,29.89,10,8,2,15,5,22,0.06,2,Rain,150
2012-9-4,91,76,60,72,66,61,100,80,46,29.93,29.86,29.75,10,7,0,20,3,26,0.65,2,Fog,173
2012-9-5,78,69,60,64,60,55,94,73,51,29.98,29.84,29.76,10,9,4,15,8,29,0.99,3,Rain,241
2012-9-6,77,64,51,54,50,46,94,60,36,30.01,29.95,29.90,10,10,10,8,2,13,0.00,1,,129
2012-9-7,68,62,53,57,53,45,88,71,49,29.99,29.90,29.80,10,10,7,16,7,22,0.00,4,,9
2012-9-8,75,60,46,48,46,43,93,64,34,30.01,29.94,29.77,10,10,10,25,7,34,0.00,1,,308
2012-9-9,69,60,50,52,49,46,94,70,43,30.18,30.11,29.98,10,10,10,12,6,17,0.00,1,,347
2012-9-10,75,63,51,52,48,46,88,59,36,30.16,30.09,29.98,10,10,10,16,7,26,0.00,0,,179
2012-9-11,86,73,60,57,53,50,68,53,31,30.00,29.95,29.90,10,10,10,18,11,29,0.00,0,,188
2012-9-12,73,62,51,59,52,37,100,65,33,30.27,30.10,29.97,10,9,2,18,9,24,0.33,3,Rain,356
2012-9-13,66,58,50,52,48,41,100,77,40,30.37,30.32,30.27,10,9,2,10,5,,0.28,3,Rain,55
2012-9-14,73,62,50,50,47,41,88,64,31,30.34,30.31,30.27,10,10,10,7,3,12,0.00,1,,201
2012-9-15,77,64,51,48,44,41,82,53,28,30.29,30.20,30.09,10,10,9,14,5,22,0.00,2,,195
2012-9-16,75,64,53,57,52,45,82,64,52,30.08,30.00,29.91,10,10,10,13,8,24,0.00,3,,207
2012-9-17,62,55,46,59,49,39,94,78,59,29.95,29.92,29.88,10,10,3,20,7,24,0.07,5,Rain,334
2012-9-18,59,50,41,41,35,28,93,60,33,30.01,29.98,29.94,10,10,7,15,5,21,0.00,3,,323
2012-9-19,75,60,46,48,38,34,62,45,25,29.97,29.81,29.67,10,10,7,21,10,32,0.00,3,,219
2012-9-20,64,53,42,39,35,30,76,50,28,29.93,29.90,29.87,10,10,9,20,6,30,0.00,1,,285
2012-9-21,62,55,48,50,44,34,100,75,51,29.91,29.85,29.79,10,9,3,8,4,14,0.18,7,Rain,235
2012-9-22,55,46,37,43,35,28,87,68,47,30.22,30.06,29.79,10,10,10,20,9,34,0.00,5,,322
2012-9-23,57,45,33,34,30,27,93,60,31,30.31,30.25,30.21,10,10,10,14,3,21,0.00,0,,315
2012-9-24,75,57,39,37,33,28,70,43,24,30.20,29.99,29.81,10,10,10,16,6,29,0.00,1,,220
2012-9-25,77,64,50,45,40,36,71,48,22,29.92,29.84,29.79,10,10,9,12,4,14,0.00,1,,327
2012-9-26,64,50,37,43,38,36,93,59,37,30.17,30.07,29.94,10,10,10,9,3,14,0.00,1,,48
2012-9-27,66,50,35,41,37,34,100,63,32,30.27,30.22,30.18,10,10,10,9,2,13,0.00,3,,101
2012-9-28,71,53,35,43,38,36,100,60,27,30.24,30.18,30.12,10,10,9,8,1,,0.00,4,,172
2012-9-29,80,64,48,43,39,36,67,44,22,30.13,30.07,29.99,10,10,10,14,4,21,0.00,1,,308
2012-9-30,71,56,42,45,41,39,93,58,31,30.02,29.97,29.93,10,10,8,9,2,12,0.00,1,,84